createdAt,value
2018-09-03T00:01:14.915Z,100242.33
2018-09-03T00:03:43.533Z,100248.77
2018-09-03T00:06:12.289Z,100241.92
2018-09-03T00:08:41.994Z,100242.29
2018-09-03T00:11:10.689Z,100252.52
2018-09-03T00:13:39.437Z,100254.13
2018-09-03T00:16:08.129Z,100259.16
2018-09-03T00:18:36.800Z,100253.84
2018-09-03T00:21:14.044Z,100253.00
2018-09-03T00:23:42.673Z,100260.22
2018-09-03T00:26:11.270Z,100260.37
2018-09-03T00:28:40.970Z,100262.58
2018-09-03T00:31:14.693Z,100266.52
2018-09-03T00:33:48.536Z,100266.19
2018-09-03T00:36:22.329Z,100269.84
2018-09-03T00:38:56.359Z,100267.16
2018-09-03T00:41:31.240Z,100272.59
2018-09-03T00:44:04.960Z,100274.78
2018-09-03T00:46:38.933Z,100273.92
2018-09-03T00:49:07.581Z,100274.41
2018-09-03T00:51:37.326Z,100280.83
2018-09-03T00:54:06.237Z,100281.31
2018-09-03T00:56:34.898Z,100280.94
2018-09-03T00:59:04.669Z,100278.25
2018-09-03T01:01:33.362Z,100272.52
2018-09-03T01:04:02.950Z,100277.51
2018-09-03T01:06:31.838Z,100270.44
2018-09-03T01:09:00.517Z,100269.61
2018-09-03T01:11:29.120Z,100270.58
2018-09-03T01:13:57.775Z,100269.47
2018-09-03T01:16:26.419Z,100265.08
2018-09-03T01:18:55.703Z,100265.08
2018-09-03T01:21:26.525Z,100264.36
2018-09-03T01:23:55.642Z,100263.73
2018-09-03T01:26:24.300Z,100259.86
2018-09-03T01:28:53.537Z,100251.92
2018-09-03T01:31:22.676Z,100254.23
2018-09-03T01:33:54.504Z,100247.38
2018-09-03T01:36:23.273Z,100249.47
2018-09-03T01:38:51.962Z,100239.72
2018-09-03T01:41:21.089Z,100240.09
2018-09-03T01:43:49.854Z,100232.91
2018-09-03T01:46:18.577Z,100231.41
2018-09-03T01:48:47.557Z,100227.73
2018-09-03T01:51:16.189Z,100231.75
2018-09-03T01:53:44.906Z,100230.52
2018-09-03T01:56:13.663Z,100230.30
2018-09-03T01:58:42.667Z,100227.24
2018-09-03T02:01:11.742Z,100220.66
2018-09-03T02:03:40.437Z,100222.84
2018-09-03T02:06:09.413Z,100220.39
2018-09-03T02:08:38.116Z,100216.97
2018-09-03T02:11:07.083Z,100218.05
2018-09-03T02:13:37.342Z,100214.63
2018-09-03T02:16:06.010Z,100212.16
2018-09-03T02:18:34.828Z,100216.55
2018-09-03T02:21:04.023Z,100214.91
2018-09-03T02:23:32.665Z,100214.63
2018-09-03T02:26:01.329Z,100214.48
2018-09-03T02:28:30.605Z,100215.30
2018-09-03T02:30:59.946Z,100208.69
2018-09-03T02:33:29.465Z,100209.87
2018-09-03T02:35:58.214Z,100208.59
2018-09-03T02:38:28.034Z,100210.09
2018-09-03T02:40:56.693Z,100205.81
2018-09-03T02:43:25.449Z,100206.83
2018-09-03T02:45:54.180Z,100207.30
2018-09-03T02:48:22.984Z,100206.38
2018-09-03T02:50:51.599Z,100206.36
2018-09-03T02:53:20.353Z,100205.06
2018-09-03T02:55:49.357Z,100205.38
2018-09-03T02:58:20.422Z,100205.22
2018-09-03T03:00:49.303Z,100202.03
2018-09-03T03:03:18.037Z,100213.31
2018-09-03T03:05:46.775Z,100205.30
2018-09-03T03:08:15.402Z,100203.95
2018-09-03T03:10:44.397Z,100198.50
2018-09-03T03:13:13.231Z,100198.71
2018-09-03T03:15:42.062Z,100199.56
2018-09-03T03:18:11.285Z,100205.02
2018-09-03T03:20:40.017Z,100202.45
2018-09-03T03:23:08.745Z,100200.63
2018-09-03T03:25:37.440Z,100205.33
2018-09-03T03:28:06.250Z,100210.92
2018-09-03T03:30:34.861Z,100217.81
2018-09-03T03:33:03.597Z,100214.97
2018-09-03T03:35:32.274Z,100204.31
2018-09-03T03:38:00.991Z,100207.25
2018-09-03T03:40:29.613Z,100208.69
2018-09-03T03:42:58.482Z,100204.47
2018-09-03T03:45:27.108Z,100207.16
2018-09-03T03:47:55.816Z,100203.30
2018-09-03T03:50:24.522Z,100203.61
2018-09-03T03:52:53.218Z,100203.80
2018-09-03T03:55:21.969Z,100203.76
2018-09-03T03:57:50.697Z,100196.63
2018-09-03T04:00:19.418Z,100194.72
2018-09-03T04:02:48.029Z,100195.33
2018-09-03T04:05:17.605Z,100190.77
2018-09-03T04:07:46.622Z,100194.59
2018-09-03T04:10:16.434Z,100193.67
2018-09-03T04:12:54.401Z,100194.06
2018-09-03T04:15:24.130Z,100190.73
2018-09-03T04:17:53.944Z,100194.08
2018-09-03T04:20:22.732Z,100190.07
2018-09-03T04:22:51.471Z,100190.17
2018-09-03T04:25:20.360Z,100190.07
2018-09-03T04:27:49.023Z,100186.06
2018-09-03T04:30:18.027Z,100186.55
2018-09-03T04:32:46.687Z,100183.39
2018-09-03T04:35:15.501Z,100184.53
2018-09-03T04:37:44.174Z,100186.25
2018-09-03T04:40:13.701Z,100182.63
2018-09-03T04:42:42.483Z,100178.05
2018-09-03T04:45:11.258Z,100184.53
2018-09-03T04:47:39.966Z,100187.58
2018-09-03T04:50:08.661Z,100188.69
2018-09-03T04:52:37.586Z,100186.20
2018-09-03T04:55:06.429Z,100188.48
2018-09-03T04:57:35.119Z,100182.47
2018-09-03T05:00:04.056Z,100188.30
2018-09-03T05:02:32.748Z,100191.24
2018-09-03T05:05:01.402Z,100195.91
2018-09-03T05:07:30.971Z,100203.34
2018-09-03T05:09:59.649Z,100202.73
2018-09-03T05:12:28.377Z,100205.02
2018-09-03T05:14:58.079Z,100206.91
2018-09-03T05:17:26.821Z,100202.61
2018-09-03T05:19:57.661Z,100201.22
2018-09-03T05:22:26.881Z,100209.69
2018-09-03T05:24:55.591Z,100210.69
2018-09-03T05:27:24.286Z,100213.06
2018-09-03T05:29:53.962Z,100209.98
2018-09-03T05:32:22.625Z,100214.55
2018-09-03T05:34:51.419Z,100215.85
2018-09-03T05:37:20.129Z,100214.01
2018-09-03T05:39:48.801Z,100213.08
2018-09-03T05:42:17.477Z,100211.71
2018-09-03T05:44:46.189Z,100216.03
2018-09-03T05:47:14.878Z,100220.75
2018-09-03T05:49:43.510Z,100211.31
2018-09-03T05:52:14.993Z,100211.66
2018-09-03T05:54:43.661Z,100213.28
2018-09-03T05:57:12.405Z,100213.98
2018-09-03T05:59:41.851Z,100208.92
2018-09-03T06:02:10.733Z,100212.30
2018-09-03T06:04:39.457Z,100203.61
2018-09-03T06:07:08.313Z,100203.92
2018-09-03T06:09:36.957Z,100204.80
2018-09-03T06:12:05.626Z,100198.41
2018-09-03T06:14:34.389Z,100198.09
2018-09-03T06:17:03.505Z,100198.65
2018-09-03T06:19:32.185Z,100191.36
2018-09-03T06:22:00.969Z,100190.58
2018-09-03T06:24:29.561Z,100185.25
2018-09-03T06:26:58.387Z,100189.04
2018-09-03T06:29:27.090Z,100193.00
2018-09-03T06:31:57.082Z,100196.68
2018-09-03T06:34:25.771Z,100188.55
2018-09-03T06:36:54.510Z,100185.13
2018-09-03T06:39:23.198Z,100182.13
2018-09-03T06:41:51.880Z,100179.67
2018-09-03T06:44:20.762Z,100174.45
2018-09-03T06:46:50.673Z,100180.42
2018-09-03T06:49:19.541Z,100177.51
2018-09-03T06:51:49.468Z,100175.78
2018-09-03T06:54:18.558Z,100177.78
2018-09-03T06:56:47.234Z,100171.05
2018-09-03T06:59:16.021Z,100173.33
2018-09-03T07:01:44.804Z,100175.89
2018-09-03T07:04:13.604Z,100171.09
2018-09-03T07:06:42.728Z,100172.43
2018-09-03T07:09:11.512Z,100174.95
2018-09-03T07:11:40.198Z,100174.45
2018-09-03T07:14:08.901Z,100166.22
2018-09-03T07:16:37.708Z,100165.98
2018-09-03T07:19:07.495Z,100168.48
2018-09-03T07:21:37.933Z,100166.88
2018-09-03T07:24:08.637Z,100168.38
2018-09-03T07:26:39.522Z,100162.66
2018-09-03T07:29:08.410Z,100165.27
2018-09-03T07:31:37.094Z,100157.66
2018-09-03T07:34:05.785Z,100162.81
2018-09-03T07:36:34.765Z,100160.95
2018-09-03T07:39:03.626Z,100165.14
2018-09-03T07:41:32.882Z,100156.77
2018-09-03T07:44:01.917Z,100158.76
2018-09-03T07:46:32.807Z,100161.28
2018-09-03T07:49:01.524Z,100160.08
2018-09-03T07:51:30.143Z,100157.43
2018-09-03T07:53:58.784Z,100156.72
2018-09-03T07:56:27.753Z,100153.96
2018-09-03T07:58:56.548Z,100134.23
2018-09-03T08:01:25.279Z,100147.71
2018-09-03T08:03:54.209Z,100139.78
2018-09-03T08:06:23.986Z,100140.50
2018-09-03T08:08:54.774Z,100143.10
2018-09-03T08:11:23.415Z,100136.59
2018-09-03T08:13:52.163Z,100134.02
2018-09-03T08:16:20.909Z,100138.20
2018-09-03T08:18:50.597Z,100129.48
2018-09-03T08:21:19.209Z,100125.11
2018-09-03T08:23:48.059Z,100114.64
2018-09-03T08:26:17.010Z,100126.21
2018-09-03T08:28:45.878Z,100121.27
2018-09-03T08:31:14.550Z,100119.50
2018-09-03T08:33:44.825Z,100112.84
2018-09-03T08:36:13.659Z,100112.63
2018-09-03T08:38:42.391Z,100103.33
2018-09-03T08:41:11.128Z,100105.95
2018-09-03T08:43:39.964Z,100109.23
2018-09-03T08:46:08.794Z,100095.73
2018-09-03T08:48:37.490Z,100091.00
2018-09-03T08:51:06.133Z,100088.89
2018-09-03T08:53:34.926Z,100087.03
2018-09-03T08:56:03.869Z,100080.80
2018-09-03T08:58:32.610Z,100074.16
2018-09-03T09:01:01.254Z,100074.58
2018-09-03T09:03:35.263Z,100073.68
2018-09-03T09:06:04.038Z,100062.78
2018-09-03T09:08:32.781Z,100064.53
2018-09-03T09:11:01.531Z,100053.27
2018-09-03T09:13:30.897Z,100051.92
2018-09-03T09:16:00.323Z,100052.81
2018-09-03T09:18:29.307Z,100046.25
2018-09-03T09:20:58.002Z,100043.13
2018-09-03T09:23:26.744Z,100033.55
2018-09-03T09:25:56.162Z,100031.58
2018-09-03T09:28:24.796Z,100037.69
2018-09-03T09:30:53.728Z,100020.22
2018-09-03T09:33:22.466Z,100021.64
2018-09-03T09:35:51.272Z,100014.59
2018-09-03T09:38:20.049Z,100023.17
2018-09-03T09:40:49.734Z,100015.41
2018-09-03T09:43:19.159Z,100011.44
2018-09-03T09:45:47.850Z,100006.52
2018-09-03T09:48:16.461Z,100002.55
2018-09-03T09:50:46.653Z,100003.41
2018-09-03T09:53:15.281Z,99986.89
2018-09-03T09:55:44.105Z,99993.16
2018-09-03T10:00:52.301Z,99996.48
2018-09-03T10:03:21.062Z,99992.60
2018-09-03T10:05:49.725Z,99988.56
2018-09-03T10:08:18.494Z,99985.04
2018-09-03T10:10:47.209Z,99976.97
2018-09-03T10:13:16.117Z,99979.75
2018-09-03T10:15:44.758Z,99982.63
2018-09-03T10:18:13.501Z,99976.88
2018-09-03T10:20:42.123Z,99975.68
2018-09-03T10:23:10.865Z,99972.25
2018-09-03T10:25:39.858Z,99963.84
2018-09-03T10:28:08.517Z,99968.76
2018-09-03T10:30:39.321Z,99960.77
2018-09-03T10:33:07.989Z,99962.48
2018-09-03T10:35:36.689Z,99958.38
2018-09-03T10:38:05.837Z,99950.75
2018-09-03T10:40:34.508Z,99951.55
2018-09-03T10:43:04.217Z,99947.99
2018-09-03T10:45:32.809Z,99945.48
2018-09-03T10:48:01.769Z,99941.08
2018-09-03T10:50:30.450Z,99935.61
2018-09-03T10:52:59.243Z,99930.17
2018-09-03T10:55:28.078Z,99932.53
2018-09-03T10:57:56.778Z,99939.75
2018-09-03T11:00:25.451Z,99939.16
2018-09-03T11:02:54.033Z,99934.99
2018-09-03T11:05:22.702Z,99932.15
2018-09-03T11:07:51.498Z,99930.17
2018-09-03T11:10:21.161Z,99916.93
2018-09-03T11:12:49.921Z,99929.81
2018-09-03T11:15:18.557Z,99918.86
2018-09-03T11:17:47.516Z,99921.30
2018-09-03T11:25:25.963Z,99910.14
2018-09-03T11:27:55.498Z,99916.42
2018-09-03T11:30:25.216Z,99911.33
2018-09-03T11:32:55.950Z,99900.27
2018-09-03T11:35:25.210Z,99890.61
2018-09-03T11:37:53.847Z,99909.05
2018-09-03T11:40:23.472Z,99907.31
2018-09-03T11:42:52.987Z,99900.09
2018-09-03T11:45:22.754Z,99895.98
2018-09-03T11:47:51.510Z,99896.00
2018-09-03T11:50:21.779Z,99891.97
2018-09-03T11:52:55.170Z,99888.55
2018-09-03T11:55:23.893Z,99886.17
2018-09-03T11:57:52.709Z,99878.58
2018-09-03T12:00:27.911Z,99880.39
2018-09-03T12:02:59.331Z,99879.70
2018-09-03T12:05:29.546Z,99869.36
2018-09-03T12:07:58.501Z,99876.92
2018-09-03T12:10:27.229Z,99874.05
2018-09-03T12:12:56.044Z,99879.44
2018-09-03T12:15:28.879Z,99869.16
2018-09-03T12:17:57.925Z,99865.98
2018-09-03T12:20:26.845Z,99860.21
2018-09-03T12:22:55.654Z,99865.88
2018-09-03T12:25:24.381Z,99859.67
2018-09-03T12:27:53.132Z,99863.51
2018-09-03T12:30:22.005Z,99856.28
2018-09-03T12:32:50.633Z,99855.23
2018-09-03T12:35:19.582Z,99863.15
2018-09-03T12:37:48.935Z,99858.28
2018-09-03T12:40:17.731Z,99845.92
2018-09-03T12:42:46.638Z,99841.50
2018-09-03T12:45:15.441Z,99848.29
2018-09-03T12:47:44.054Z,99831.83
2018-09-03T12:50:12.753Z,99828.32
2018-09-03T12:52:41.422Z,99833.03
2018-09-03T12:55:10.239Z,99826.66
2018-09-03T12:57:38.898Z,99819.78
2018-09-03T13:00:08.798Z,99811.39
2018-09-03T13:02:39.419Z,99812.42
2018-09-03T13:05:06.390Z,99813.87
2018-09-03T13:07:35.118Z,99808.67
2018-09-03T13:10:03.821Z,99801.71
2018-09-03T13:12:32.464Z,99804.17
2018-09-03T13:15:01.116Z,99802.50
2018-09-03T13:17:30.081Z,99807.01
2018-09-03T13:19:58.891Z,99797.70
2018-09-03T13:22:27.756Z,99796.92
2018-09-03T13:24:56.427Z,99795.31
2018-09-03T13:27:25.134Z,99794.38
2018-09-03T13:29:53.885Z,99790.77
2018-09-03T13:32:22.731Z,99793.36
2018-09-03T13:34:51.367Z,99786.27
2018-09-03T13:37:20.090Z,99785.41
2018-09-03T13:39:48.788Z,99782.48
2018-09-03T13:42:17.575Z,99778.60
2018-09-03T13:44:46.396Z,99775.80
2018-09-03T13:47:15.057Z,99765.77
2018-09-03T13:49:45.440Z,99768.00
2018-09-03T13:52:14.107Z,99774.03
2018-09-03T13:54:42.910Z,99769.89
2018-09-03T13:57:11.738Z,99773.75
2018-09-03T13:59:41.900Z,99758.91
2018-09-03T14:02:10.514Z,99767.66
2018-09-03T14:04:39.513Z,99771.16
2018-09-03T14:07:08.231Z,99764.91
2018-09-03T14:09:37.243Z,99758.92
2018-09-03T14:12:06.086Z,99752.98
2018-09-03T14:14:34.832Z,99762.64
2018-09-03T14:17:03.565Z,99762.25
2018-09-03T14:19:32.358Z,99755.97
2018-09-03T14:22:01.667Z,99754.55
2018-09-03T14:24:31.076Z,99759.16
2018-09-03T14:26:59.970Z,99758.84
2018-09-03T14:29:28.915Z,99753.42
2018-09-03T14:31:57.840Z,99755.33
2018-09-03T14:34:26.866Z,99748.61
2018-09-03T14:36:55.602Z,99756.63
2018-09-03T14:39:24.409Z,99748.98
2018-09-03T14:41:53.103Z,99746.64
2018-09-03T14:44:21.709Z,99743.13
2018-09-03T14:46:50.501Z,99748.16
2018-09-03T14:49:19.163Z,99748.55
2018-09-03T14:51:48.874Z,99751.95
2018-09-03T14:54:17.605Z,99750.62
2018-09-03T14:56:46.434Z,99759.08
2018-09-03T14:59:15.339Z,99753.20
2018-09-03T15:01:45.390Z,99754.42
2018-09-03T15:04:14.289Z,99754.42
2018-09-03T15:06:42.943Z,99752.23
2018-09-03T15:09:12.086Z,99758.28
2018-09-03T15:11:41.278Z,99754.02
2018-09-03T15:14:09.989Z,99746.91
2018-09-03T15:16:38.653Z,99753.77
2018-09-03T15:19:07.577Z,99754.75
2018-09-03T15:21:36.709Z,99745.99
2018-09-03T15:24:06.582Z,99751.25
2018-09-03T15:26:37.744Z,99756.77
2018-09-03T15:29:06.440Z,99754.12
2018-09-03T15:31:35.647Z,99758.81
2018-09-03T15:34:04.238Z,99756.42
2018-09-03T15:36:36.319Z,99754.28
2018-09-03T15:39:07.273Z,99753.80
2018-09-03T15:41:35.917Z,99755.98
2018-09-03T15:44:04.647Z,99751.59
2018-09-03T15:46:34.846Z,99755.47
2018-09-03T15:49:03.882Z,99758.72
2018-09-03T15:51:32.614Z,99755.98
2018-09-03T15:54:02.251Z,99758.08
2018-09-03T15:56:31.662Z,99759.53
2018-09-03T15:59:00.687Z,99760.73
2018-09-03T16:01:29.444Z,99757.77
2018-09-03T16:03:58.240Z,99759.72
2018-09-03T16:06:26.940Z,99756.16
2018-09-03T16:08:56.141Z,99756.35
2018-09-03T16:11:24.957Z,99758.50
2018-09-03T16:13:55.241Z,99759.00
2018-09-03T16:16:29.107Z,99751.55
2018-09-03T16:19:00.397Z,99753.36
2018-09-03T16:21:29.086Z,99756.80
2018-09-03T16:23:58.071Z,99756.43
2018-09-03T16:26:27.046Z,99757.55
2018-09-03T16:28:56.358Z,99752.14
2018-09-03T16:31:26.019Z,99761.27
2018-09-03T16:33:55.993Z,99764.91
2018-09-03T16:36:24.705Z,99761.78
2018-09-03T16:38:53.511Z,99761.42
2018-09-03T16:41:22.301Z,99764.20
2018-09-03T16:43:53.510Z,99763.84
2018-09-03T16:46:22.161Z,99758.18
2018-09-03T16:48:51.100Z,99764.66
2018-09-03T16:51:20.905Z,99765.47
2018-09-03T16:53:49.593Z,99755.23
2018-09-03T16:56:18.420Z,99755.61
2018-09-03T16:58:47.115Z,99759.85
2018-09-03T17:01:15.804Z,99760.53
2018-09-03T17:03:44.515Z,99759.14
2018-09-03T17:06:13.324Z,99754.72
2018-09-03T17:08:42.844Z,99760.61
2018-09-03T17:11:11.714Z,99762.41
2018-09-03T17:13:41.117Z,99763.55
2018-09-03T17:16:11.034Z,99761.59
2018-09-03T17:18:39.903Z,99759.82
2018-09-03T17:21:09.544Z,99759.38
2018-09-03T17:23:40.455Z,99762.21
2018-09-03T17:26:09.265Z,99763.34
2018-09-03T17:28:37.993Z,99763.50
2018-09-03T17:31:10.772Z,99771.13
2018-09-03T17:33:39.640Z,99767.59
2018-09-03T17:36:08.422Z,99773.39
2018-09-03T17:38:37.181Z,99779.80
2018-09-03T17:41:06.987Z,99776.34
2018-09-03T17:43:36.319Z,99773.81
2018-09-03T17:46:05.000Z,99773.63
2018-09-03T17:48:33.982Z,99778.21
2018-09-03T17:51:02.817Z,99765.59
2018-09-03T17:53:31.553Z,99778.97
2018-09-03T17:56:00.323Z,99778.97
2018-09-03T17:58:29.269Z,99781.50
2018-09-03T18:00:58.454Z,99788.92
2018-09-03T18:03:27.506Z,99789.77
2018-09-03T18:05:57.738Z,99787.16
2018-09-03T18:08:28.283Z,99797.25
2018-09-03T18:10:57.698Z,99791.52
2018-09-03T18:13:26.484Z,99803.91
2018-09-03T18:15:56.231Z,99806.12
2018-09-03T18:18:24.978Z,99805.95
2018-09-03T18:20:53.682Z,99800.22
2018-09-03T18:23:22.450Z,99799.44
2018-09-03T18:25:51.262Z,99803.84
2018-09-03T18:28:19.972Z,99801.20
2018-09-03T18:30:48.786Z,99806.95
2018-09-03T18:33:17.544Z,99805.30
2018-09-03T18:35:46.305Z,99804.04
2018-09-03T18:38:15.215Z,99804.23
2018-09-03T18:40:44.193Z,99803.92
2018-09-03T18:43:13.210Z,99801.09
2018-09-03T18:45:41.940Z,99802.22
2018-09-03T18:48:11.720Z,99799.74
2018-09-03T18:50:42.153Z,99800.05
2018-09-03T18:53:10.929Z,99807.48
2018-09-03T18:55:40.041Z,99801.38
2018-09-03T18:58:09.061Z,99795.95
2018-09-03T19:00:37.730Z,99792.12
2018-09-03T19:03:06.823Z,99793.27
2018-09-03T19:05:35.667Z,99792.55
2018-09-03T19:08:04.978Z,99784.56
2018-09-03T19:10:34.127Z,99788.00
2018-09-03T19:13:03.203Z,99788.62
2018-09-03T19:15:33.246Z,99786.78
2018-09-03T19:18:02.554Z,99779.12
2018-09-03T19:20:31.657Z,99786.02
2018-09-03T19:23:07.461Z,99785.44
2018-09-03T19:25:37.572Z,99781.40
2018-09-03T19:28:07.237Z,99776.30
2018-09-03T19:30:39.378Z,99776.71
2018-09-03T19:33:14.810Z,99772.97
2018-09-03T19:35:45.216Z,99768.77
2018-09-03T19:38:14.033Z,99763.42
2018-09-03T19:40:42.743Z,99766.23
2018-09-03T19:43:12.301Z,99761.72
2018-09-03T19:45:41.216Z,99763.73
2018-09-03T19:48:10.258Z,99764.50
2018-09-03T19:50:38.968Z,99762.20
2018-09-03T19:53:08.165Z,99765.65
2018-09-03T19:55:37.890Z,99759.09
2018-09-03T19:58:06.677Z,99762.27
2018-09-03T20:00:35.419Z,99759.63
2018-09-03T20:03:04.334Z,99751.35
2018-09-03T20:05:33.459Z,99753.19
2018-09-03T20:08:03.058Z,99750.02
2018-09-03T20:10:31.872Z,99744.29
2018-09-03T20:13:01.261Z,99746.83
2018-09-03T20:15:30.030Z,99748.50
2018-09-03T20:17:58.917Z,99754.70
2018-09-03T20:20:27.544Z,99750.79
2018-09-03T20:22:56.231Z,99741.28
2018-09-03T20:25:24.877Z,99735.30
2018-09-03T20:27:53.678Z,99736.84
2018-09-03T20:30:23.016Z,99739.52
2018-09-03T20:32:51.718Z,99732.48
2018-09-03T20:35:20.594Z,99734.16
2018-09-03T20:37:49.257Z,99735.86
2018-09-03T20:40:17.987Z,99743.91
2018-09-03T20:42:46.850Z,99741.23
2018-09-03T20:45:15.568Z,99731.63
2018-09-03T20:47:44.321Z,99731.15
2018-09-03T20:50:13.327Z,99729.52
2018-09-03T20:52:42.082Z,99737.92
2018-09-03T20:55:11.172Z,99731.71
2018-09-03T20:57:40.042Z,99732.56
2018-09-03T21:00:09.340Z,99732.20
2018-09-03T21:02:38.274Z,99729.16
2018-09-03T21:05:07.422Z,99732.48
2018-09-03T21:07:36.214Z,99735.78
2018-09-03T21:10:07.260Z,99724.70
2018-09-03T21:12:36.157Z,99736.41
2018-09-03T21:15:05.055Z,99734.34
2018-09-03T21:17:34.265Z,99738.98
2018-09-03T21:20:03.919Z,99732.52
2018-09-03T21:22:32.678Z,99739.84
2018-09-03T21:25:01.438Z,99731.36
2018-09-03T21:27:30.334Z,99740.38
2018-09-03T21:29:59.033Z,99738.56
2018-09-03T21:32:27.725Z,99733.31
2018-09-03T21:34:56.491Z,99731.52
2018-09-03T21:37:25.225Z,99734.45
2018-09-03T21:39:53.897Z,99732.88
2018-09-03T21:42:22.597Z,99726.09
2018-09-03T21:44:51.289Z,99733.41
2018-09-03T21:47:19.924Z,99730.24
2018-09-03T21:49:49.583Z,99731.10
2018-09-03T21:52:18.665Z,99726.11
2018-09-03T21:54:47.947Z,99729.77
2018-09-03T21:57:18.088Z,99719.66
2018-09-03T21:59:46.783Z,99722.74
2018-09-03T22:02:15.569Z,99711.30
2018-09-03T22:04:44.393Z,99711.91
2018-09-03T22:07:13.031Z,99707.80
2018-09-03T22:09:41.765Z,99702.70
2018-09-03T22:12:10.482Z,99705.49
2018-09-03T22:14:39.265Z,99702.94
2018-09-03T22:17:08.449Z,99703.67
2018-09-03T22:19:38.615Z,99699.53
2018-09-03T22:22:07.408Z,99694.78
2018-09-03T22:24:36.116Z,99695.27
2018-09-03T22:27:04.837Z,99688.82
2018-09-03T22:29:33.594Z,99692.95
2018-09-03T22:32:02.554Z,99691.38
2018-09-03T22:34:31.373Z,99690.92
2018-09-03T22:37:00.981Z,99692.14
2018-09-03T22:39:29.695Z,99684.95
2018-09-03T22:41:58.410Z,99680.09
2018-09-03T22:44:27.094Z,99684.83
2018-09-03T22:46:57.849Z,99675.73
2018-09-03T22:49:27.175Z,99679.96
2018-09-03T22:51:56.914Z,99678.50
2018-09-03T22:54:25.641Z,99681.30
2018-09-03T22:56:54.262Z,99679.83
2018-09-03T22:59:23.005Z,99683.88
2018-09-03T23:01:52.765Z,99675.47
2018-09-03T23:04:21.835Z,99673.16
2018-09-03T23:06:50.478Z,99674.52
2018-09-03T23:09:19.340Z,99673.16
2018-09-03T23:11:48.337Z,99671.81
2018-09-03T23:14:17.455Z,99664.18
2018-09-03T23:16:46.741Z,99666.84
2018-09-03T23:19:15.409Z,99668.30
2018-09-03T23:21:44.102Z,99662.21
2018-09-03T23:24:13.102Z,99662.45
2018-09-03T23:26:41.936Z,99657.00
2018-09-03T23:29:10.622Z,99658.56
2018-09-03T23:31:40.250Z,99661.24
2018-09-03T23:34:08.920Z,99658.06
2018-09-03T23:36:38.542Z,99661.83
2018-09-03T23:39:07.527Z,99662.91
2018-09-03T23:41:36.419Z,99661.47
2018-09-03T23:44:05.081Z,99655.39
2018-09-03T23:46:33.793Z,99659.88
2018-09-03T23:49:02.470Z,99665.09
2018-09-03T23:51:31.177Z,99661.41
2018-09-03T23:53:59.976Z,99660.78
2018-09-03T23:56:28.825Z,99654.56
2018-09-03T23:58:58.578Z,99651.75
